createdAt,value
2017-09-10T00:00:39.395Z,12.19
2017-09-10T00:01:19.865Z,12.13
2017-09-10T00:02:00.383Z,12.16
2017-09-10T00:02:40.975Z,12.02
2017-09-10T00:03:21.471Z,12.14
2017-09-10T00:04:02.036Z,12.02
2017-09-10T00:04:42.573Z,12.09
2017-09-10T00:05:23.034Z,12.02
2017-09-10T00:06:03.581Z,12.14
2017-09-10T00:06:44.125Z,12.12
2017-09-10T00:07:24.660Z,12.09
2017-09-10T00:08:05.210Z,12.09
2017-09-10T00:08:45.719Z,12.07
2017-09-10T00:09:26.232Z,12.01
2017-09-10T00:10:06.823Z,12.04
2017-09-10T00:10:47.309Z,12.07
2017-09-10T00:11:27.893Z,12.01
2017-09-10T00:12:08.451Z,12.01
2017-09-10T00:12:49.006Z,12.04
2017-09-10T00:13:29.565Z,12.05
2017-09-10T00:14:10.046Z,12.09
2017-09-10T00:14:50.596Z,12.04
2017-09-10T00:15:31.173Z,11.95
2017-09-10T00:16:11.669Z,11.94
2017-09-10T00:16:52.174Z,11.94
2017-09-10T00:17:32.690Z,11.88
2017-09-10T00:18:13.245Z,11.9
2017-09-10T00:18:53.789Z,11.99
2017-09-10T00:19:34.358Z,11.98
2017-09-10T00:20:14.903Z,11.91
2017-09-10T00:20:55.363Z,11.9
2017-09-10T00:21:35.892Z,11.88
2017-09-10T00:22:16.420Z,11.86
2017-09-10T00:22:56.995Z,11.91
2017-09-10T00:23:37.460Z,11.85
2017-09-10T00:24:18.014Z,11.86
2017-09-10T00:24:58.580Z,11.83
2017-09-10T00:25:39.185Z,11.86
2017-09-10T00:26:19.678Z,11.85
2017-09-10T00:27:00.208Z,11.85
2017-09-10T00:27:40.744Z,11.88
2017-09-10T00:28:21.384Z,11.83
2017-09-10T00:29:01.795Z,11.8
2017-09-10T00:29:42.424Z,11.79
2017-09-10T00:30:22.877Z,11.83
2017-09-10T00:31:03.418Z,11.83
2017-09-10T00:31:43.923Z,11.76
2017-09-10T00:32:24.452Z,11.75
2017-09-10T00:33:05.017Z,11.83
2017-09-10T00:33:45.579Z,11.79
2017-09-10T00:34:26.156Z,11.78
2017-09-10T00:35:06.645Z,11.79
2017-09-10T00:35:47.220Z,11.82
2017-09-10T00:36:27.717Z,11.7
2017-09-10T00:37:08.234Z,11.82
2017-09-10T00:37:48.794Z,11.67
2017-09-10T00:38:29.286Z,11.76
2017-09-10T00:39:09.856Z,11.67
2017-09-10T00:39:50.404Z,11.78
2017-09-10T00:40:30.917Z,11.82
2017-09-10T00:41:11.482Z,11.83
2017-09-10T00:41:51.994Z,11.75
2017-09-10T00:42:32.579Z,11.79
2017-09-10T00:43:13.056Z,11.82
2017-09-10T00:43:53.596Z,11.76
2017-09-10T00:44:34.091Z,11.76
2017-09-10T00:45:14.635Z,11.82
2017-09-10T00:45:55.230Z,11.88
2017-09-10T00:46:35.769Z,11.79
2017-09-10T00:47:16.310Z,11.88
2017-09-10T00:47:56.869Z,11.83
2017-09-10T00:48:37.489Z,11.91
2017-09-10T00:49:17.921Z,11.94
2017-09-10T00:49:58.506Z,11.85
2017-09-10T00:50:39.076Z,11.86
2017-09-10T00:51:19.560Z,11.83
2017-09-10T00:52:00.166Z,11.95
2017-09-10T00:52:40.740Z,11.88
2017-09-10T00:53:21.315Z,11.91
2017-09-10T00:54:01.837Z,11.88
2017-09-10T00:54:42.331Z,11.85
2017-09-10T00:55:22.970Z,11.91
2017-09-10T00:56:03.543Z,11.88
2017-09-10T00:56:43.998Z,11.94
2017-09-10T00:57:24.537Z,11.94
2017-09-10T00:58:05.018Z,11.83
2017-09-10T00:58:45.598Z,11.91
2017-09-10T00:59:26.113Z,11.86
2017-09-10T01:00:06.691Z,11.86
2017-09-10T01:00:47.243Z,11.86
2017-09-10T01:01:27.784Z,11.91
2017-09-10T01:02:08.357Z,11.94
2017-09-10T01:02:48.997Z,11.9
2017-09-10T01:03:29.559Z,11.94
2017-09-10T01:04:10.124Z,11.9
2017-09-10T01:04:50.613Z,11.9
2017-09-10T01:05:31.097Z,11.91
2017-09-10T01:06:11.630Z,11.91
2017-09-10T01:06:52.207Z,11.86
2017-09-10T01:07:32.783Z,11.86
2017-09-10T01:08:13.288Z,11.86
2017-09-10T01:08:53.823Z,11.94
2017-09-10T01:09:34.390Z,11.85
2017-09-10T01:10:14.890Z,11.86
2017-09-10T01:10:55.485Z,11.9
2017-09-10T01:11:36.041Z,11.91
2017-09-10T01:12:16.534Z,11.91
2017-09-10T01:12:57.127Z,11.9
2017-09-10T01:13:37.610Z,11.9
2017-09-10T01:14:18.172Z,11.83
2017-09-10T01:14:58.690Z,11.76
2017-09-10T01:15:39.284Z,11.8
2017-09-10T01:16:19.798Z,11.82
2017-09-10T01:17:00.328Z,11.8
2017-09-10T01:17:40.932Z,11.76
2017-09-10T01:18:21.542Z,11.8
2017-09-10T01:19:02.033Z,11.75
2017-09-10T01:19:42.491Z,11.73
2017-09-10T01:20:23.022Z,11.73
2017-09-10T01:21:03.698Z,11.76
2017-09-10T01:21:44.344Z,11.78
2017-09-10T01:22:24.841Z,11.83
2017-09-10T01:23:05.459Z,11.78
2017-09-10T01:23:45.983Z,11.82
2017-09-10T01:24:26.569Z,11.78
2017-09-10T01:25:08.125Z,11.67
2017-09-10T01:25:48.642Z,11.73
2017-09-10T01:26:29.199Z,11.76
2017-09-10T01:27:09.832Z,11.75
2017-09-10T01:27:50.378Z,11.64
2017-09-10T01:28:30.946Z,11.7
2017-09-10T01:29:11.514Z,11.67
2017-09-10T01:29:51.953Z,11.73
2017-09-10T01:30:32.518Z,11.73
2017-09-10T01:31:13.016Z,11.83
2017-09-10T01:31:53.523Z,11.8
2017-09-10T01:32:34.136Z,11.83
2017-09-10T01:33:14.641Z,11.69
2017-09-10T01:33:55.293Z,11.76
2017-09-10T01:34:35.929Z,11.78
2017-09-10T01:35:16.525Z,11.82
2017-09-10T01:35:57.101Z,11.76
2017-09-10T01:36:37.645Z,11.79
2017-09-10T01:37:18.203Z,11.79
2017-09-10T01:37:58.749Z,11.79
2017-09-10T01:38:39.298Z,11.83
2017-09-10T01:39:19.899Z,11.78
2017-09-10T01:40:00.458Z,11.78
2017-09-10T01:40:41.083Z,11.8
2017-09-10T01:41:21.566Z,11.75
2017-09-10T01:42:02.125Z,11.78
2017-09-10T01:42:42.693Z,11.79
2017-09-10T01:43:23.389Z,11.73
2017-09-10T01:44:03.992Z,11.72
2017-09-10T01:44:44.480Z,11.83
2017-09-10T01:45:25.020Z,11.72
2017-09-10T01:46:05.608Z,11.76
2017-09-10T01:46:46.111Z,11.82
2017-09-10T01:47:26.664Z,11.78
2017-09-10T01:48:07.276Z,11.82
2017-09-10T01:48:47.694Z,11.82
2017-09-10T01:49:28.299Z,11.83
2017-09-10T01:50:09.004Z,11.79
2017-09-10T01:50:49.506Z,11.75
2017-09-10T01:51:30.119Z,11.73
2017-09-10T01:52:10.632Z,11.75
2017-09-10T01:52:51.225Z,11.83
2017-09-10T01:53:31.884Z,11.72
2017-09-10T01:54:12.408Z,11.8
2017-09-10T01:54:52.908Z,11.75
2017-09-10T01:55:33.541Z,11.73
2017-09-10T01:56:14.101Z,11.82
2017-09-10T01:56:54.685Z,11.79
2017-09-10T01:57:35.263Z,11.73
2017-09-10T01:58:15.818Z,11.78
2017-09-10T01:58:56.314Z,11.73
2017-09-10T01:59:36.925Z,11.78
2017-09-10T02:00:17.435Z,11.76
2017-09-10T02:00:57.957Z,11.76
2017-09-10T02:01:38.497Z,11.75
2017-09-10T02:02:19.077Z,11.73
2017-09-10T02:02:59.643Z,11.75
2017-09-10T02:03:40.189Z,11.8
2017-09-10T02:04:20.807Z,11.82
2017-09-10T02:05:01.398Z,11.75
2017-09-10T02:05:41.947Z,11.82
2017-09-10T02:06:22.596Z,11.82
2017-09-10T02:07:03.221Z,11.8
2017-09-10T02:07:43.872Z,11.82
2017-09-10T02:08:24.501Z,11.8
2017-09-10T02:09:05.183Z,11.79
2017-09-10T02:09:45.750Z,11.76
2017-09-10T02:10:26.263Z,11.79
2017-09-10T02:11:06.868Z,11.72
2017-09-10T02:11:47.439Z,11.8
2017-09-10T02:12:27.951Z,11.73
2017-09-10T02:13:08.547Z,11.8
2017-09-10T02:13:49.067Z,11.8
2017-09-10T02:14:29.656Z,11.73
2017-09-10T02:15:10.182Z,11.94
2017-09-10T02:15:50.765Z,11.91
2017-09-10T02:16:31.286Z,11.85
2017-09-10T02:17:11.875Z,11.85
2017-09-10T02:17:52.384Z,11.83
2017-09-10T02:18:32.962Z,11.88
2017-09-10T02:19:13.407Z,11.9
2017-09-10T02:19:53.994Z,11.85
2017-09-10T02:20:34.522Z,11.83
2017-09-10T02:21:15.042Z,11.91
2017-09-10T02:21:55.559Z,11.9
2017-09-10T02:22:36.131Z,11.9
2017-09-10T02:23:16.611Z,11.9
2017-09-10T02:23:57.158Z,11.86
2017-09-10T02:24:37.780Z,11.91
2017-09-10T02:25:18.312Z,11.94
2017-09-10T02:25:58.895Z,11.91
2017-09-10T02:26:39.489Z,11.91
2017-09-10T02:27:20.042Z,11.91
2017-09-10T02:28:00.630Z,11.86
2017-09-10T02:28:41.157Z,11.9
2017-09-10T02:29:21.657Z,11.83
2017-09-10T02:30:02.237Z,11.9
2017-09-10T02:30:42.793Z,11.85
2017-09-10T02:31:23.303Z,11.94
2017-09-10T02:32:03.929Z,11.96
2017-09-10T02:32:44.401Z,11.9
2017-09-10T02:33:24.938Z,11.91
2017-09-10T02:34:07.063Z,11.86
2017-09-10T02:34:47.628Z,11.91
2017-09-10T02:35:28.144Z,11.91
2017-09-10T02:36:08.655Z,11.94
2017-09-10T02:36:49.266Z,11.91
2017-09-10T02:37:31.733Z,11.85
2017-09-10T02:38:12.283Z,11.88
2017-09-10T02:38:52.960Z,11.86
2017-09-10T02:39:33.606Z,11.83
2017-09-10T02:40:14.087Z,11.85
2017-09-10T02:40:54.720Z,11.82
2017-09-10T02:41:35.383Z,11.91
2017-09-10T02:42:15.965Z,11.83
2017-09-10T02:42:56.520Z,11.96
2017-09-10T02:43:37.015Z,11.91
2017-09-10T02:44:17.515Z,11.83
2017-09-10T02:44:58.122Z,11.82
2017-09-10T02:45:38.831Z,11.86
2017-09-10T02:46:19.443Z,11.83
2017-09-10T02:46:59.915Z,11.86
2017-09-10T02:47:40.484Z,11.91
2017-09-10T02:48:21.020Z,11.86
2017-09-10T02:49:01.658Z,11.94
2017-09-10T02:49:42.178Z,11.91
2017-09-10T02:50:22.757Z,11.94
2017-09-10T02:51:03.397Z,11.91
2017-09-10T02:51:44.078Z,11.91
2017-09-10T02:52:24.685Z,11.85
2017-09-10T02:53:05.276Z,11.9
2017-09-10T02:53:45.956Z,11.88
2017-09-10T02:54:26.566Z,11.9
2017-09-10T02:55:07.127Z,11.95
2017-09-10T02:55:47.819Z,11.96
2017-09-10T02:56:28.432Z,11.98
2017-09-10T02:57:08.925Z,12.01
2017-09-10T02:57:49.517Z,11.9
2017-09-10T02:58:30.042Z,12.04
2017-09-10T02:59:10.616Z,11.96
2017-09-10T02:59:51.283Z,11.99
2017-09-10T03:00:31.962Z,12.07
2017-09-10T03:01:12.496Z,12.1
2017-09-10T03:01:53.050Z,12.09
2017-09-10T03:02:35.323Z,12.05
2017-09-10T03:03:15.863Z,12.09
2017-09-10T03:03:56.400Z,12.01
2017-09-10T03:04:36.992Z,12.05
2017-09-10T03:05:17.586Z,11.98
2017-09-10T03:05:58.085Z,12.01
2017-09-10T03:06:38.609Z,12.07
2017-09-10T03:07:19.185Z,11.99
2017-09-10T03:07:59.828Z,12.05
2017-09-10T03:08:40.417Z,12.02
2017-09-10T03:09:20.993Z,12.04
2017-09-10T03:10:01.551Z,12.07
2017-09-10T03:10:42.135Z,11.96
2017-09-10T03:11:22.698Z,12.02
2017-09-10T03:12:03.278Z,12.02
2017-09-10T03:12:46.004Z,12.05
2017-09-10T03:13:26.515Z,12.05
2017-09-10T03:14:07.062Z,12.07
2017-09-10T03:14:47.599Z,12.01
2017-09-10T03:15:28.151Z,12.1
2017-09-10T03:16:08.746Z,12.07
2017-09-10T03:16:49.357Z,12.07
2017-09-10T03:17:29.893Z,12.02
2017-09-10T03:18:10.552Z,12.12
2017-09-10T03:18:51.092Z,12.01
2017-09-10T03:19:31.694Z,11.99
2017-09-10T03:20:12.285Z,12.02
2017-09-10T03:20:52.884Z,12.02
2017-09-10T03:21:33.474Z,12.07
2017-09-10T03:22:15.535Z,12.04
2017-09-10T03:22:56.175Z,12.07
2017-09-10T03:23:36.888Z,12.07
2017-09-10T03:24:17.451Z,12.16
2017-09-10T03:24:58.182Z,12.01
2017-09-10T03:25:38.760Z,12.05
2017-09-10T03:26:19.267Z,12.02
2017-09-10T03:26:59.972Z,12.09
2017-09-10T03:27:40.467Z,12.02
2017-09-10T03:28:21.198Z,11.98
2017-09-10T03:29:01.720Z,12.14
2017-09-10T03:29:44.244Z,12.13
2017-09-10T03:30:24.938Z,12.17
2017-09-10T03:31:05.405Z,12.14
2017-09-10T03:31:46.042Z,12.16
2017-09-10T03:32:26.605Z,12.04
2017-09-10T03:33:07.083Z,12.05
2017-09-10T03:33:47.640Z,12.05
2017-09-10T03:34:28.284Z,12.1
2017-09-10T03:35:10.655Z,11.95
2017-09-10T03:35:51.199Z,12.02
2017-09-10T03:36:31.760Z,12.04
2017-09-10T03:37:12.316Z,12.02
2017-09-10T03:37:52.871Z,12.07
2017-09-10T03:38:33.388Z,12.01
2017-09-10T03:39:14.090Z,12.07
2017-09-10T03:39:54.742Z,12.1
2017-09-10T03:40:35.406Z,12.12
2017-09-10T03:41:17.570Z,12.05
2017-09-10T03:41:58.095Z,12.02
2017-09-10T03:42:40.707Z,12.12
2017-09-10T03:43:21.263Z,12.05
2017-09-10T03:44:01.845Z,12.05
2017-09-10T03:44:42.486Z,12.04
2017-09-10T03:45:23.053Z,12.01
2017-09-10T03:46:03.653Z,12.09
2017-09-10T03:46:44.139Z,12.02
2017-09-10T03:47:24.844Z,12.1
2017-09-10T03:48:05.388Z,11.96
2017-09-10T03:48:47.478Z,12.07
2017-09-10T03:49:28.205Z,12.07
2017-09-10T03:50:08.751Z,12.05
2017-09-10T03:50:50.329Z,12.01
2017-09-10T03:51:30.820Z,11.94
2017-09-10T03:52:11.403Z,11.91
2017-09-10T03:52:52.149Z,11.91
2017-09-10T03:53:32.954Z,11.88
2017-09-10T03:54:13.444Z,11.91
2017-09-10T03:54:54.014Z,11.99
2017-09-10T03:55:34.549Z,11.99
2017-09-10T03:56:15.032Z,11.95
2017-09-10T03:56:55.590Z,11.95
2017-09-10T03:57:36.163Z,11.96
2017-09-10T03:58:16.714Z,11.9
2017-09-10T03:58:57.456Z,11.91
2017-09-10T03:59:39.794Z,11.95
2017-09-10T04:00:20.429Z,11.95
2017-09-10T04:01:01.008Z,11.85
2017-09-10T04:01:41.593Z,11.85
2017-09-10T04:02:22.167Z,11.91
2017-09-10T04:03:02.765Z,11.86
2017-09-10T04:03:43.349Z,11.86
2017-09-10T04:04:23.984Z,11.86
2017-09-10T04:05:04.532Z,11.83
2017-09-10T04:05:45.005Z,11.83
2017-09-10T04:06:27.525Z,11.79
2017-09-10T04:07:08.023Z,11.79
2017-09-10T04:07:48.664Z,11.76
2017-09-10T04:08:29.275Z,11.8
2017-09-10T04:09:09.798Z,11.82
2017-09-10T04:09:50.404Z,11.76
2017-09-10T04:10:31.098Z,11.8
2017-09-10T04:11:11.710Z,11.76
2017-09-10T04:11:52.286Z,11.79
2017-09-10T04:12:32.811Z,11.76
2017-09-10T04:13:13.477Z,11.79
2017-09-10T04:13:53.914Z,11.75
2017-09-10T04:14:34.540Z,11.82
2017-09-10T04:15:15.145Z,11.73
2017-09-10T04:15:55.641Z,11.69
2017-09-10T04:16:38.144Z,11.79
2017-09-10T04:17:18.741Z,11.75
2017-09-10T04:17:59.411Z,11.72
2017-09-10T04:18:39.948Z,11.65
2017-09-10T04:19:20.443Z,11.67
2017-09-10T04:20:02.781Z,11.76
2017-09-10T04:20:43.282Z,11.67
2017-09-10T04:21:23.882Z,11.64
2017-09-10T04:22:04.469Z,11.62
2017-09-10T04:22:44.979Z,11.61
2017-09-10T04:23:25.618Z,11.61
2017-09-10T04:24:06.060Z,11.69
2017-09-10T04:24:46.700Z,11.64
2017-09-10T04:25:27.240Z,11.55
2017-09-10T04:26:07.874Z,11.67
2017-09-10T04:26:48.453Z,11.62
2017-09-10T04:27:30.783Z,11.57
2017-09-10T04:28:11.385Z,11.62
2017-09-10T04:28:51.912Z,11.54
2017-09-10T04:29:34.215Z,11.52
2017-09-10T04:30:14.811Z,11.61
2017-09-10T04:30:55.335Z,11.52
2017-09-10T04:31:35.863Z,11.47
2017-09-10T11:40:42.485Z,19.43
2017-09-10T11:41:23.015Z,19.54
2017-09-10T11:42:03.656Z,19.4
2017-09-10T11:42:44.167Z,19.39
2017-09-10T11:43:24.759Z,19.37
2017-09-10T11:44:05.302Z,19.39
2017-09-10T11:44:45.836Z,19.36
2017-09-10T11:45:26.440Z,19.39
2017-09-10T11:46:06.984Z,19.37
2017-09-10T11:46:47.607Z,19.44
2017-09-10T11:47:28.161Z,19.43
2017-09-10T11:48:08.699Z,19.4
2017-09-10T11:48:49.356Z,19.36
2017-09-10T11:49:29.890Z,19.43
2017-09-10T11:50:10.439Z,19.54
2017-09-10T11:50:50.961Z,19.51
2017-09-10T11:51:31.569Z,19.59
2017-09-10T11:52:12.105Z,19.62
2017-09-10T11:52:52.644Z,19.62
2017-09-10T11:53:33.177Z,19.55
2017-09-10T11:54:13.742Z,19.63
2017-09-10T11:54:54.286Z,19.62
2017-09-10T11:55:34.837Z,19.62
2017-09-10T11:56:15.430Z,19.69
2017-09-10T11:56:55.999Z,19.71
2017-09-10T11:57:36.544Z,19.77
2017-09-10T11:58:17.963Z,19.71
2017-09-10T11:58:58.509Z,19.78
2017-09-10T11:59:39.150Z,19.77
2017-09-10T12:00:19.676Z,19.8
2017-09-10T12:01:00.228Z,19.8
2017-09-10T12:01:40.741Z,19.83
2017-09-10T12:02:21.292Z,19.81
2017-09-10T12:03:01.832Z,19.76
2017-09-10T12:03:42.414Z,19.81
2017-09-10T12:04:22.976Z,19.76
2017-09-10T12:05:03.513Z,19.91
2017-09-10T12:05:44.182Z,19.8
2017-09-10T12:06:24.706Z,19.81
2017-09-10T12:07:05.244Z,19.69
2017-09-10T12:07:45.770Z,19.56
2017-09-10T12:08:26.308Z,19.43
2017-09-10T12:09:07.124Z,19.33
2017-09-10T12:09:47.942Z,19.26
2017-09-10T12:10:28.477Z,19.19
2017-09-10T12:11:09.009Z,19.23
2017-09-10T12:11:49.538Z,19.32
2017-09-10T12:12:30.156Z,19.29
2017-09-10T12:13:10.782Z,19.16
2017-09-10T12:13:51.985Z,19.19
2017-09-10T12:14:32.516Z,19.28
2017-09-10T12:15:13.141Z,19.33
2017-09-10T12:15:53.603Z,19.43
2017-09-10T12:16:34.142Z,19.55
2017-09-10T12:17:14.687Z,19.61
2017-09-10T12:17:55.219Z,19.54
2017-09-10T12:18:35.760Z,19.46
2017-09-10T12:19:16.291Z,19.59
2017-09-10T12:19:56.814Z,19.55
2017-09-10T12:20:37.422Z,19.63
2017-09-10T12:21:17.953Z,19.59
2017-09-10T12:21:58.486Z,19.69
2017-09-10T12:22:39.035Z,19.76
2017-09-10T12:23:19.580Z,19.62
2017-09-10T12:24:00.103Z,19.58
2017-09-10T12:24:40.641Z,19.48
2017-09-10T12:25:21.307Z,19.33
2017-09-10T12:26:01.768Z,19.28
2017-09-10T12:26:42.306Z,19.37
2017-09-10T12:27:22.836Z,19.23
2017-09-10T12:28:03.371Z,19.33
2017-09-10T12:28:43.923Z,19.39
2017-09-10T12:29:24.474Z,19.47
2017-09-10T12:30:05.002Z,19.43
2017-09-10T12:30:45.759Z,19.43
2017-09-10T12:31:26.665Z,19.39
2017-09-10T12:32:07.280Z,19.4
2017-09-10T12:32:47.831Z,19.54
2017-09-10T12:33:28.454Z,19.37
2017-09-10T12:34:08.966Z,19.39
2017-09-10T12:34:49.496Z,19.21
2017-09-10T12:35:30.007Z,19.06
2017-09-10T12:36:10.527Z,18.98
2017-09-10T12:36:51.043Z,18.99
2017-09-10T12:37:31.652Z,18.94
2017-09-10T12:38:12.523Z,18.98
2017-09-10T12:38:54.057Z,18.91
2017-09-10T12:39:34.640Z,18.94
2017-09-10T12:40:15.486Z,19.07
2017-09-10T12:40:57.711Z,19.18
2017-09-10T12:41:38.191Z,19.22
2017-09-10T12:42:18.721Z,19.16
2017-09-10T12:42:59.285Z,19.08
2017-09-10T12:43:39.887Z,19
2017-09-10T12:44:20.560Z,18.94
2017-09-10T12:45:01.098Z,18.92
2017-09-10T12:45:41.622Z,18.98
2017-09-10T12:46:22.603Z,18.92
2017-09-10T12:47:03.396Z,18.94
2017-09-10T12:47:44.237Z,18.98
2017-09-10T12:48:25.238Z,19.02
2017-09-10T12:49:05.637Z,19.02
2017-09-10T12:49:46.259Z,18.99
2017-09-10T12:50:27.277Z,18.85
2017-09-10T12:51:07.735Z,18.81
2017-09-10T12:51:48.260Z,18.66
2017-09-10T12:52:28.853Z,18.66
2017-09-10T12:53:09.545Z,18.62
2017-09-10T12:53:50.881Z,18.67
2017-09-10T12:54:32.467Z,18.67
2017-09-10T12:55:13.028Z,18.65
2017-09-10T12:55:53.559Z,18.7
2017-09-10T12:56:34.248Z,18.76
2017-09-10T12:57:14.843Z,18.75
2017-09-10T12:57:55.551Z,18.7
2017-09-10T12:58:36.058Z,18.75
2017-09-10T12:59:16.588Z,18.73
2017-09-10T12:59:57.128Z,18.67
2017-09-10T13:00:37.661Z,18.7
2017-09-10T13:01:18.201Z,18.75
2017-09-10T13:01:58.740Z,18.7
2017-09-10T13:02:39.273Z,18.81
2017-09-10T13:03:19.827Z,18.8
2017-09-10T13:04:00.554Z,18.81
2017-09-10T13:04:41.085Z,18.78
2017-09-10T13:05:21.607Z,18.8
2017-09-10T13:06:02.161Z,18.8
2017-09-10T13:06:42.698Z,18.7
2017-09-10T13:07:23.242Z,18.65
2017-09-10T13:08:03.764Z,18.7
2017-09-10T13:08:44.309Z,18.72
2017-09-10T13:09:24.839Z,18.72
2017-09-10T13:10:05.371Z,18.69
2017-09-10T13:10:46.527Z,18.69
2017-09-10T13:11:27.902Z,18.69
2017-09-10T13:12:09.206Z,18.73
2017-09-10T13:12:58.467Z,18.76
2017-09-10T13:13:39.794Z,18.75
2017-09-10T13:14:20.350Z,18.76
2017-09-10T13:15:00.884Z,18.8
2017-09-10T13:15:41.390Z,18.73
2017-09-10T13:16:21.937Z,18.65
2017-09-10T13:17:02.458Z,18.66
2017-09-10T13:17:42.985Z,18.63
2017-09-10T13:18:23.508Z,18.66
2017-09-10T13:19:04.044Z,18.6
2017-09-10T13:19:44.576Z,18.65
2017-09-10T13:20:25.116Z,18.63
2017-09-10T13:21:05.659Z,18.57
2017-09-10T13:21:46.198Z,18.62
2017-09-10T13:22:26.733Z,18.66
2017-09-10T13:23:07.268Z,18.57
2017-09-10T13:23:47.796Z,18.6
2017-09-10T13:24:28.332Z,18.67
2017-09-10T13:25:08.865Z,18.75
2017-09-10T13:25:49.412Z,18.76
2017-09-10T13:26:29.945Z,18.9
2017-09-10T13:27:10.482Z,18.92
2017-09-10T13:27:50.998Z,18.91
2017-09-10T13:28:31.527Z,18.92
2017-09-10T13:29:12.066Z,18.8
2017-09-10T13:29:52.638Z,18.78
2017-09-10T13:30:33.140Z,18.73
2017-09-10T13:31:13.641Z,18.7
2017-09-10T13:31:54.179Z,18.81
2017-09-10T13:32:34.700Z,18.75
2017-09-10T13:33:15.184Z,18.8
2017-09-10T13:33:55.924Z,18.78
2017-09-10T13:34:36.544Z,18.76
2017-09-10T13:35:17.709Z,18.84
2017-09-10T13:35:58.230Z,18.99
2017-09-10T13:36:38.741Z,18.94
2017-09-10T13:37:19.251Z,18.99
2017-09-10T13:37:59.788Z,18.9
2017-09-10T13:38:40.350Z,18.91
2017-09-10T13:39:20.850Z,18.9
2017-09-10T13:40:01.362Z,18.8
2017-09-10T13:40:41.892Z,18.8
2017-09-10T13:41:22.394Z,18.67
2017-09-10T13:42:07.436Z,18.69
2017-09-10T13:42:48.584Z,18.63
2017-09-10T13:43:29.078Z,18.57
2017-09-10T13:44:09.702Z,18.52
2017-09-10T13:44:50.223Z,18.5
2017-09-10T13:45:30.726Z,18.48
2017-09-10T13:46:11.284Z,18.41
2017-09-10T13:46:51.776Z,18.44
2017-09-10T13:47:32.936Z,18.45
2017-09-10T13:48:13.433Z,18.52
2017-09-10T13:48:53.935Z,18.55
2017-09-10T13:49:34.439Z,18.52
2017-09-10T13:50:14.965Z,18.57
2017-09-10T13:50:55.471Z,18.51
2017-09-10T13:51:35.991Z,18.45
2017-09-10T13:52:16.526Z,18.41
2017-09-10T13:52:57.069Z,18.35
2017-09-10T13:53:37.568Z,18.33
2017-09-10T13:54:18.108Z,18.23
2017-09-10T13:54:58.635Z,18.14
2017-09-10T13:55:39.177Z,18.08
2017-09-10T13:56:19.711Z,18.08
2017-09-10T13:57:00.224Z,17.95
2017-09-10T13:57:40.757Z,17.99
2017-09-10T13:58:21.281Z,17.93
2017-09-10T13:59:01.827Z,18.05
2017-09-10T13:59:42.296Z,18.02
2017-09-10T14:00:22.815Z,17.95
2017-09-10T14:01:03.332Z,17.95
2017-09-10T14:01:43.876Z,18
2017-09-10T14:02:24.385Z,17.99
2017-09-10T14:03:04.912Z,17.93
2017-09-10T14:03:45.449Z,17.9
2017-09-10T14:04:25.968Z,17.96
2017-09-10T14:05:06.491Z,17.93
2017-09-10T14:05:47.034Z,18.03
2017-09-10T14:06:27.579Z,17.99
2017-09-10T14:07:08.146Z,17.97
2017-09-10T14:07:48.681Z,17.99
2017-09-10T14:08:29.219Z,17.99
2017-09-10T14:09:09.752Z,18
2017-09-10T14:09:50.264Z,18.05
2017-09-10T14:10:30.785Z,18.03
2017-09-10T14:11:11.331Z,18.14
2017-09-10T14:11:51.879Z,18.15
2017-09-10T14:12:32.365Z,18.2
2017-09-10T14:13:12.887Z,18.26
2017-09-10T14:13:53.424Z,18.23
2017-09-10T14:14:33.958Z,18.23
2017-09-10T14:15:14.483Z,18.14
2017-09-10T14:15:55.004Z,18.17
2017-09-10T14:16:35.520Z,18.14
2017-09-10T14:17:16.045Z,18.08
2017-09-10T14:17:56.582Z,17.99
2017-09-10T14:18:37.115Z,18
2017-09-10T14:19:17.643Z,18
2017-09-10T14:19:58.180Z,18.05
2017-09-10T14:20:38.678Z,18.1
2017-09-10T14:21:19.249Z,17.97
2017-09-10T14:21:59.749Z,18.05
2017-09-10T14:22:40.285Z,18.14
2017-09-10T14:23:20.810Z,18.18
2017-09-10T14:24:01.330Z,18.18
2017-09-10T14:24:41.865Z,18.17
2017-09-10T14:25:23.188Z,18.14
2017-09-10T14:26:03.707Z,18.18
2017-09-10T14:26:44.213Z,18.14
2017-09-10T14:27:24.791Z,18.17
2017-09-10T14:28:05.333Z,18.21
2017-09-10T14:28:45.867Z,18.26
2017-09-10T14:29:26.390Z,18.25
2017-09-10T14:30:06.941Z,18.25
2017-09-10T14:30:47.444Z,18.26
2017-09-10T14:31:27.982Z,18.36
2017-09-10T14:32:08.519Z,18.39
2017-09-10T14:32:49.037Z,18.45
2017-09-10T14:33:29.570Z,18.35
2017-09-10T14:34:10.085Z,18.35
2017-09-10T14:34:50.613Z,18.36
2017-09-10T14:35:31.157Z,18.37
2017-09-10T14:36:11.672Z,18.32
2017-09-10T14:36:52.178Z,18.42
2017-09-10T14:37:32.697Z,18.3
2017-09-10T14:38:13.209Z,18.45
2017-09-10T14:38:53.716Z,18.54
2017-09-10T14:39:34.249Z,18.6
2017-09-10T14:40:14.762Z,18.65
2017-09-10T14:40:55.273Z,18.76
2017-09-10T14:41:35.858Z,18.78
2017-09-10T14:42:16.388Z,18.88
2017-09-10T14:42:56.903Z,18.99
2017-09-10T14:43:37.431Z,18.98
2017-09-10T14:44:17.939Z,19.02
2017-09-10T14:44:58.436Z,18.94
2017-09-10T14:45:38.955Z,18.99
2017-09-10T14:46:19.475Z,19
2017-09-10T14:46:59.988Z,18.98
2017-09-10T14:47:40.515Z,18.92
2017-09-10T14:48:21.044Z,18.8
2017-09-10T14:49:01.561Z,18.8
2017-09-10T14:49:42.085Z,18.75
2017-09-10T14:50:22.621Z,18.76
2017-09-10T14:51:03.137Z,18.66
2017-09-10T14:51:43.655Z,18.69
2017-09-10T14:52:24.170Z,18.7
2017-09-10T14:53:04.698Z,18.63
2017-09-10T14:53:45.217Z,18.65
2017-09-10T14:54:25.740Z,18.67
2017-09-10T14:55:06.283Z,18.58
2017-09-10T14:55:59.334Z,18.62
2017-09-10T14:56:39.858Z,18.66
2017-09-10T14:57:20.395Z,18.63
2017-09-10T14:58:01.012Z,18.67
2017-09-10T14:58:41.557Z,18.62
2017-09-10T14:59:22.073Z,18.58
2017-09-10T15:00:02.599Z,18.48
2017-09-10T15:00:43.145Z,18.54
2017-09-10T15:01:23.649Z,18.5
2017-09-10T15:02:04.183Z,18.5
2017-09-10T15:02:44.701Z,18.35
2017-09-10T15:03:25.229Z,18.41
2017-09-10T15:04:05.751Z,18.37
2017-09-10T15:04:46.288Z,18.37
2017-09-10T15:05:26.816Z,18.41
2017-09-10T15:06:07.319Z,18.44
2017-09-10T15:06:47.840Z,18.29
2017-09-10T15:07:28.335Z,18.36
2017-09-10T15:08:08.865Z,18.35
2017-09-10T15:08:49.391Z,18.35
2017-09-10T15:09:29.895Z,18.27
2017-09-10T15:10:10.439Z,18.25
2017-09-10T15:10:50.950Z,18.25
2017-09-10T15:11:31.537Z,18.21
2017-09-10T15:12:12.069Z,18.17
2017-09-10T15:12:52.612Z,18.17
2017-09-10T15:13:33.141Z,18.1
2017-09-10T15:14:13.654Z,18.05
2017-09-10T15:14:54.157Z,18.02
2017-09-10T15:15:34.692Z,17.96
2017-09-10T15:16:15.219Z,18.02
2017-09-10T15:16:55.735Z,17.9
2017-09-10T15:17:36.259Z,17.93
2017-09-10T15:18:16.767Z,17.89
2017-09-10T15:18:57.266Z,17.79
2017-09-10T15:19:37.808Z,17.79
2017-09-10T15:20:18.327Z,17.78
2017-09-10T15:20:58.844Z,17.78
2017-09-10T15:21:39.421Z,17.75
2017-09-10T15:22:19.952Z,17.84
2017-09-10T15:23:00.476Z,17.96
2017-09-10T15:23:41.025Z,17.93
2017-09-10T15:24:21.560Z,17.93
2017-09-10T15:25:02.086Z,17.97
2017-09-10T15:25:42.597Z,18.05
2017-09-10T15:26:23.140Z,18.08
2017-09-10T15:27:03.662Z,18.1
2017-09-10T15:27:44.205Z,18.05
2017-09-10T15:28:24.719Z,18.03
2017-09-10T15:29:05.311Z,17.99
2017-09-10T15:29:45.867Z,18.02
2017-09-10T15:30:26.382Z,17.99
2017-09-10T15:31:06.952Z,18.07
2017-09-10T15:31:47.638Z,17.9
2017-09-10T15:32:28.190Z,17.93
2017-09-10T15:33:08.720Z,17.97
2017-09-10T15:33:49.255Z,18.03
2017-09-10T15:34:29.876Z,17.99
2017-09-10T15:35:10.396Z,18.12
2017-09-10T15:35:50.919Z,18.1
2017-09-10T15:36:31.494Z,18.26
2017-09-10T15:37:12.091Z,18.35
2017-09-10T15:37:52.616Z,18.45
2017-09-10T15:38:33.213Z,18.57
2017-09-10T15:39:14.010Z,18.66
2017-09-10T15:39:54.671Z,18.67
2017-09-10T15:40:35.439Z,18.72
2017-09-10T15:41:15.956Z,18.67
2017-09-10T15:41:56.488Z,18.6
2017-09-10T15:42:37.216Z,18.5
2017-09-10T15:43:17.768Z,18.47
2017-09-10T15:43:58.368Z,18.5
2017-09-10T15:44:38.888Z,18.52
2017-09-10T15:45:19.419Z,18.5
2017-09-10T15:45:59.940Z,18.42
2017-09-10T15:46:40.486Z,18.35
2017-09-10T15:47:20.985Z,18.32
2017-09-10T15:48:01.545Z,18.37
2017-09-10T15:48:42.064Z,18.35
2017-09-10T15:49:22.586Z,18.35
2017-09-10T15:50:03.116Z,18.26
2017-09-10T15:50:43.622Z,18.25
2017-09-10T15:51:24.145Z,18.29
2017-09-10T15:52:04.690Z,18.18
2017-09-10T15:52:45.264Z,18.18
2017-09-10T15:53:25.805Z,18.18
2017-09-10T15:54:06.319Z,18.15
2017-09-10T15:54:46.834Z,18.14